Vetka, Belarus
Current Conditions -  °F | °C
As of 6:30 AM on Thursday 27 Nov 2014 (Local Time) from UMGG Reporting Station
Clear Clear  
Wind Chill:   Ceiling: Unl
Heat Index: 14°   Visibility: 6mi
Dew Point: 10°   Wind: 4mph
Humidity: 86%   Direction: 20°NNE
Pressure: 30.39"   Gusts: NA
Location:  52.56°N, 31.18°E
Report Text: UMGG 270430Z 02002MPS CAVOK M10/M12 Q1029 R28/CLRD//NOSIG
Loading
Personal Weather Stations






























Interactive Weather Map New forecast layout! Learn more

10-Day Weather Forecast

Advertisements
Track Severe Weather on mobile